sensor_id;sensor_type;location;lat;lon;timestamp;P1;durP1;ratioP1;P2;durP2;ratioP2
57593;SDS011;43423;46.510;6.686;2022-12-29T00:01:32;7.40;;;3.60;;
57593;SDS011;43423;46.510;6.686;2022-12-29T00:03:58;7.10;;;3.28;;
57593;SDS011;43423;46.510;6.686;2022-12-29T00:06:24;10.32;;;3.72;;
57593;SDS011;43423;46.510;6.686;2022-12-29T00:08:50;5.40;;;3.63;;
57593;SDS011;43423;46.510;6.686;2022-12-29T00:11:25;8.70;;;3.88;;
57593;SDS011;43423;46.510;6.686;2022-12-29T00:13:52;8.60;;;3.88;;
57593;SDS011;43423;46.510;6.686;2022-12-29T00:16:38;12.98;;;4.38;;
57593;SDS011;43423;46.510;6.686;2022-12-29T00:19:06;6.55;;;3.35;;
57593;SDS011;43423;46.510;6.686;2022-12-29T00:21:52;9.93;;;4.22;;
57593;SDS011;43423;46.510;6.686;2022-12-29T00:24:36;7.60;;;3.60;;
57593;SDS011;43423;46.510;6.686;2022-12-29T00:27:21;7.43;;;3.85;;
57593;SDS011;43423;46.510;6.686;2022-12-29T00:30:09;10.50;;;4.15;;
57593;SDS011;43423;46.510;6.686;2022-12-29T00:32:55;5.40;;;3.55;;
57593;SDS011;43423;46.510;6.686;2022-12-29T00:35:44;7.78;;;4.05;;
57593;SDS011;43423;46.510;6.686;2022-12-29T00:38:18;5.85;;;3.35;;
57593;SDS011;43423;46.510;6.686;2022-12-29T00:41:04;8.90;;;3.75;;
57593;SDS011;43423;46.510;6.686;2022-12-29T00:43:48;6.15;;;3.05;;
57593;SDS011;43423;46.510;6.686;2022-12-29T00:46:33;4.47;;;2.70;;
57593;SDS011;43423;46.510;6.686;2022-12-29T00:48:59;7.78;;;3.45;;
57593;SDS011;43423;46.510;6.686;2022-12-29T00:51:44;7.25;;;3.50;;
57593;SDS011;43423;46.510;6.686;2022-12-29T00:54:10;8.32;;;3.30;;
57593;SDS011;43423;46.510;6.686;2022-12-29T00:56:36;5.90;;;3.10;;
57593;SDS011;43423;46.510;6.686;2022-12-29T00:59:06;6.15;;;2.75;;
57593;SDS011;43423;46.510;6.686;2022-12-29T01:01:34;5.38;;;3.15;;
57593;SDS011;43423;46.510;6.686;2022-12-29T01:04:00;6.43;;;2.70;;
57593;SDS011;43423;46.510;6.686;2022-12-29T01:06:26;5.07;;;2.58;;
57593;SDS011;43423;46.510;6.686;2022-12-29T01:08:52;5.55;;;2.58;;
57593;SDS011;43423;46.510;6.686;2022-12-29T01:11:37;5.97;;;2.50;;
57593;SDS011;43423;46.510;6.686;2022-12-29T01:14:04;4.78;;;2.88;;
57593;SDS011;43423;46.510;6.686;2022-12-29T01:16:30;5.57;;;2.88;;
57593;SDS011;43423;46.510;6.686;2022-12-29T01:18:56;2.30;;;2.00;;
57593;SDS011;43423;46.510;6.686;2022-12-29T01:21:22;5.72;;;2.40;;
57593;SDS011;43423;46.510;6.686;2022-12-29T01:23:48;5.60;;;2.55;;
57593;SDS011;43423;46.510;6.686;2022-12-29T01:26:14;4.80;;;2.30;;
57593;SDS011;43423;46.510;6.686;2022-12-29T01:28:42;6.82;;;2.30;;
57593;SDS011;43423;46.510;6.686;2022-12-29T01:31:11;6.57;;;2.70;;
57593;SDS011;43423;46.510;6.686;2022-12-29T01:33:38;3.85;;;2.33;;
57593;SDS011;43423;46.510;6.686;2022-12-29T01:36:06;5.70;;;2.38;;
57593;SDS011;43423;46.510;6.686;2022-12-29T01:38:34;5.07;;;2.17;;
57593;SDS011;43423;46.510;6.686;2022-12-29T01:41:01;4.13;;;2.10;;
57593;SDS011;43423;46.510;6.686;2022-12-29T01:48:59;4.72;;;2.42;;
57593;SDS011;43423;46.510;6.686;2022-12-29T01:51:26;8.07;;;2.60;;
57593;SDS011;43423;46.510;6.686;2022-12-29T01:53:57;5.03;;;2.65;;
57593;SDS011;43423;46.510;6.686;2022-12-29T01:56:26;6.07;;;2.55;;
57593;SDS011;43423;46.510;6.686;2022-12-29T01:58:54;4.20;;;2.33;;
57593;SDS011;43423;46.510;6.686;2022-12-29T02:01:25;5.88;;;2.65;;
57593;SDS011;43423;46.510;6.686;2022-12-29T02:03:51;5.15;;;2.40;;
57593;SDS011;43423;46.510;6.686;2022-12-29T02:06:19;6.88;;;2.88;;
57593;SDS011;43423;46.510;6.686;2022-12-29T02:08:47;7.63;;;2.77;;
57593;SDS011;43423;46.510;6.686;2022-12-29T02:11:17;5.10;;;2.88;;
57593;SDS011;43423;46.510;6.686;2022-12-29T02:13:44;5.13;;;2.65;;
57593;SDS011;43423;46.510;6.686;2022-12-29T02:16:26;7.43;;;3.13;;
57593;SDS011;43423;46.510;6.686;2022-12-29T02:21:51;4.72;;;2.70;;
57593;SDS011;43423;46.510;6.686;2022-12-29T02:27:55;4.35;;;2.65;;
57593;SDS011;43423;46.510;6.686;2022-12-29T02:30:43;3.45;;;2.20;;
57593;SDS011;43423;46.510;6.686;2022-12-29T02:36:37;3.40;;;2.05;;
57593;SDS011;43423;46.510;6.686;2022-12-29T02:45:02;5.63;;;2.35;;
57593;SDS011;43423;46.510;6.686;2022-12-29T02:48:04;4.15;;;2.05;;
57593;SDS011;43423;46.510;6.686;2022-12-29T02:50:42;4.70;;;2.00;;
57593;SDS011;43423;46.510;6.686;2022-12-29T02:53:15;2.80;;;1.80;;
57593;SDS011;43423;46.510;6.686;2022-12-29T02:56:02;4.10;;;1.75;;
57593;SDS011;43423;46.510;6.686;2022-12-29T02:58:28;4.78;;;2.20;;
57593;SDS011;43423;46.510;6.686;2022-12-29T03:06:21;6.00;;;2.03;;
57593;SDS011;43423;46.510;6.686;2022-12-29T03:11:38;4.73;;;2.13;;
57593;SDS011;43423;46.510;6.686;2022-12-29T03:14:33;3.17;;;1.95;;
57593;SDS011;43423;46.510;6.686;2022-12-29T03:17:45;2.25;;;1.88;;
57593;SDS011;43423;46.510;6.686;2022-12-29T03:21:01;3.90;;;2.20;;
57593;SDS011;43423;46.510;6.686;2022-12-29T03:23:20;5.88;;;2.40;;
57593;SDS011;43423;46.510;6.686;2022-12-29T03:25:48;3.35;;;2.00;;
57593;SDS011;43423;46.510;6.686;2022-12-29T03:28:20;5.97;;;2.00;;
57593;SDS011;43423;46.510;6.686;2022-12-29T03:33:17;5.68;;;2.35;;
57593;SDS011;43423;46.510;6.686;2022-12-29T03:35:46;5.18;;;2.13;;
57593;SDS011;43423;46.510;6.686;2022-12-29T03:38:17;3.67;;;1.80;;
57593;SDS011;43423;46.510;6.686;2022-12-29T03:40:49;4.18;;;2.17;;
57593;SDS011;43423;46.510;6.686;2022-12-29T03:43:17;5.10;;;2.42;;
57593;SDS011;43423;46.510;6.686;2022-12-29T03:45:44;4.40;;;2.25;;
57593;SDS011;43423;46.510;6.686;2022-12-29T03:48:09;2.10;;;1.60;;
57593;SDS011;43423;46.510;6.686;2022-12-29T03:50:35;4.43;;;1.80;;
57593;SDS011;43423;46.510;6.686;2022-12-29T03:53:01;3.70;;;1.65;;
57593;SDS011;43423;46.510;6.686;2022-12-29T03:55:26;2.40;;;1.50;;
57593;SDS011;43423;46.510;6.686;2022-12-29T03:57:52;4.38;;;1.55;;
57593;SDS011;43423;46.510;6.686;2022-12-29T04:00:17;3.10;;;1.40;;
57593;SDS011;43423;46.510;6.686;2022-12-29T04:02:43;4.60;;;1.70;;
57593;SDS011;43423;46.510;6.686;2022-12-29T04:05:09;3.28;;;1.70;;
57593;SDS011;43423;46.510;6.686;2022-12-29T04:07:35;3.15;;;1.67;;
57593;SDS011;43423;46.510;6.686;2022-12-29T04:10:00;2.22;;;1.70;;
57593;SDS011;43423;46.510;6.686;2022-12-29T04:12:26;2.58;;;1.27;;
57593;SDS011;43423;46.510;6.686;2022-12-29T04:14:54;4.63;;;1.38;;
57593;SDS011;43423;46.510;6.686;2022-12-29T04:17:20;2.55;;;1.45;;
57593;SDS011;43423;46.510;6.686;2022-12-29T04:19:45;5.60;;;2.13;;
57593;SDS011;43423;46.510;6.686;2022-12-29T04:22:11;2.53;;;1.67;;
57593;SDS011;43423;46.510;6.686;2022-12-29T04:24:37;1.65;;;1.17;;
57593;SDS011;43423;46.510;6.686;2022-12-29T04:27:03;3.63;;;1.50;;
57593;SDS011;43423;46.510;6.686;2022-12-29T04:29:29;3.83;;;1.73;;
57593;SDS011;43423;46.510;6.686;2022-12-29T04:31:54;4.20;;;2.08;;
57593;SDS011;43423;46.510;6.686;2022-12-29T04:34:20;3.17;;;1.50;;
57593;SDS011;43423;46.510;6.686;2022-12-29T04:36:46;3.47;;;1.40;;
57593;SDS011;43423;46.510;6.686;2022-12-29T04:39:12;2.35;;;1.67;;
57593;SDS011;43423;46.510;6.686;2022-12-29T04:41:37;2.95;;;1.60;;
57593;SDS011;43423;46.510;6.686;2022-12-29T04:44:03;2.28;;;1.67;;
57593;SDS011;43423;46.510;6.686;2022-12-29T04:46:29;4.80;;;1.70;;
57593;SDS011;43423;46.510;6.686;2022-12-29T04:48:54;3.33;;;2.10;;
57593;SDS011;43423;46.510;6.686;2022-12-29T04:51:20;5.18;;;1.92;;
57593;SDS011;43423;46.510;6.686;2022-12-29T04:53:53;2.24;;;1.37;;
57593;SDS011;43423;46.510;6.686;2022-12-29T04:56:19;3.42;;;1.88;;
57593;SDS011;43423;46.510;6.686;2022-12-29T04:58:45;4.43;;;1.73;;
57593;SDS011;43423;46.510;6.686;2022-12-29T05:01:11;3.55;;;1.55;;
57593;SDS011;43423;46.510;6.686;2022-12-29T05:03:36;3.47;;;1.48;;
57593;SDS011;43423;46.510;6.686;2022-12-29T05:06:02;3.72;;;1.55;;
57593;SDS011;43423;46.510;6.686;2022-12-29T05:08:28;2.00;;;1.52;;
57593;SDS011;43423;46.510;6.686;2022-12-29T05:10:53;2.42;;;1.50;;
57593;SDS011;43423;46.510;6.686;2022-12-29T05:13:19;6.32;;;1.92;;
57593;SDS011;43423;46.510;6.686;2022-12-29T05:15:54;3.65;;;1.40;;
57593;SDS011;43423;46.510;6.686;2022-12-29T05:18:19;3.78;;;1.70;;
57593;SDS011;43423;46.510;6.686;2022-12-29T05:20:45;2.78;;;1.52;;
57593;SDS011;43423;46.510;6.686;2022-12-29T05:23:12;3.40;;;1.50;;
57593;SDS011;43423;46.510;6.686;2022-12-29T05:25:38;4.25;;;2.05;;
57593;SDS011;43423;46.510;6.686;2022-12-29T05:28:04;4.80;;;1.67;;
57593;SDS011;43423;46.510;6.686;2022-12-29T05:30:30;4.28;;;1.80;;
57593;SDS011;43423;46.510;6.686;2022-12-29T05:32:55;4.00;;;1.70;;
57593;SDS011;43423;46.510;6.686;2022-12-29T05:35:21;6.40;;;2.22;;
57593;SDS011;43423;46.510;6.686;2022-12-29T05:37:46;3.70;;;2.25;;
57593;SDS011;43423;46.510;6.686;2022-12-29T05:40:12;5.80;;;2.00;;
57593;SDS011;43423;46.510;6.686;2022-12-29T05:42:38;2.58;;;1.65;;
57593;SDS011;43423;46.510;6.686;2022-12-29T05:45:04;3.78;;;2.00;;
57593;SDS011;43423;46.510;6.686;2022-12-29T05:47:34;4.65;;;2.40;;
57593;SDS011;43423;46.510;6.686;2022-12-29T05:50:00;4.70;;;2.70;;
57593;SDS011;43423;46.510;6.686;2022-12-29T05:52:26;4.57;;;2.28;;
57593;SDS011;43423;46.510;6.686;2022-12-29T05:54:52;5.97;;;2.05;;
57593;SDS011;43423;46.510;6.686;2022-12-29T05:57:17;9.07;;;2.55;;
57593;SDS011;43423;46.510;6.686;2022-12-29T05:59:43;3.13;;;2.13;;
57593;SDS011;43423;46.510;6.686;2022-12-29T06:02:09;7.10;;;2.67;;
57593;SDS011;43423;46.510;6.686;2022-12-29T06:04:35;4.45;;;2.13;;
57593;SDS011;43423;46.510;6.686;2022-12-29T06:07:00;4.70;;;2.35;;
57593;SDS011;43423;46.510;6.686;2022-12-29T06:09:26;7.35;;;2.53;;
57593;SDS011;43423;46.510;6.686;2022-12-29T06:11:51;3.90;;;2.75;;
57593;SDS011;43423;46.510;6.686;2022-12-29T06:14:17;5.15;;;2.42;;
57593;SDS011;43423;46.510;6.686;2022-12-29T06:16:43;3.33;;;2.40;;
57593;SDS011;43423;46.510;6.686;2022-12-29T06:19:08;6.45;;;2.80;;
57593;SDS011;43423;46.510;6.686;2022-12-29T06:21:34;3.97;;;2.38;;
57593;SDS011;43423;46.510;6.686;2022-12-29T06:24:00;5.65;;;3.08;;
57593;SDS011;43423;46.510;6.686;2022-12-29T06:26:25;3.97;;;2.53;;
57593;SDS011;43423;46.510;6.686;2022-12-29T06:28:51;4.55;;;2.05;;
57593;SDS011;43423;46.510;6.686;2022-12-29T06:31:17;3.83;;;2.28;;
57593;SDS011;43423;46.510;6.686;2022-12-29T06:33:42;4.95;;;2.47;;
57593;SDS011;43423;46.510;6.686;2022-12-29T06:36:08;4.80;;;2.33;;
57593;SDS011;43423;46.510;6.686;2022-12-29T06:38:34;6.35;;;2.15;;
57593;SDS011;43423;46.510;6.686;2022-12-29T06:41:00;3.78;;;2.17;;
57593;SDS011;43423;46.510;6.686;2022-12-29T06:43:26;5.35;;;2.25;;
57593;SDS011;43423;46.510;6.686;2022-12-29T06:45:52;4.18;;;2.30;;
57593;SDS011;43423;46.510;6.686;2022-12-29T06:48:18;2.80;;;1.83;;
57593;SDS011;43423;46.510;6.686;2022-12-29T06:50:43;3.67;;;1.70;;
57593;SDS011;43423;46.510;6.686;2022-12-29T06:53:09;3.28;;;1.40;;
57593;SDS011;43423;46.510;6.686;2022-12-29T06:55:34;3.25;;;1.98;;
57593;SDS011;43423;46.510;6.686;2022-12-29T06:58:00;4.10;;;1.63;;
57593;SDS011;43423;46.510;6.686;2022-12-29T07:00:26;4.32;;;1.70;;
57593;SDS011;43423;46.510;6.686;2022-12-29T07:02:54;3.33;;;1.63;;
57593;SDS011;43423;46.510;6.686;2022-12-29T07:05:20;2.85;;;1.48;;
57593;SDS011;43423;46.510;6.686;2022-12-29T07:07:46;3.78;;;1.27;;
57593;SDS011;43423;46.510;6.686;2022-12-29T07:10:11;2.10;;;1.45;;
57593;SDS011;43423;46.510;6.686;2022-12-29T07:12:37;2.35;;;1.60;;
57593;SDS011;43423;46.510;6.686;2022-12-29T07:15:03;2.30;;;1.50;;
57593;SDS011;43423;46.510;6.686;2022-12-29T07:17:28;5.28;;;1.85;;
57593;SDS011;43423;46.510;6.686;2022-12-29T07:19:54;3.28;;;1.45;;
57593;SDS011;43423;46.510;6.686;2022-12-29T07:22:20;2.88;;;1.60;;
57593;SDS011;43423;46.510;6.686;2022-12-29T07:24:45;3.67;;;1.60;;
57593;SDS011;43423;46.510;6.686;2022-12-29T07:27:11;4.22;;;1.80;;
57593;SDS011;43423;46.510;6.686;2022-12-29T07:29:37;3.17;;;1.27;;
57593;SDS011;43423;46.510;6.686;2022-12-29T07:32:04;3.58;;;1.73;;
57593;SDS011;43423;46.510;6.686;2022-12-29T07:34:29;2.08;;;1.48;;
57593;SDS011;43423;46.510;6.686;2022-12-29T07:36:55;2.35;;;1.40;;
57593;SDS011;43423;46.510;6.686;2022-12-29T07:39:21;2.25;;;1.45;;
57593;SDS011;43423;46.510;6.686;2022-12-29T07:41:46;3.05;;;1.58;;
57593;SDS011;43423;46.510;6.686;2022-12-29T07:44:12;4.13;;;1.70;;
57593;SDS011;43423;46.510;6.686;2022-12-29T07:46:38;2.92;;;1.60;;
57593;SDS011;43423;46.510;6.686;2022-12-29T07:49:03;7.78;;;1.75;;
57593;SDS011;43423;46.510;6.686;2022-12-29T07:51:29;2.90;;;1.80;;
57593;SDS011;43423;46.510;6.686;2022-12-29T07:53:55;4.40;;;2.17;;
57593;SDS011;43423;46.510;6.686;2022-12-29T07:56:20;4.18;;;2.25;;
57593;SDS011;43423;46.510;6.686;2022-12-29T07:58:46;6.72;;;1.92;;
57593;SDS011;43423;46.510;6.686;2022-12-29T08:01:12;3.75;;;1.98;;
57593;SDS011;43423;46.510;6.686;2022-12-29T08:03:37;5.10;;;1.92;;
57593;SDS011;43423;46.510;6.686;2022-12-29T08:06:03;2.50;;;1.90;;
57593;SDS011;43423;46.510;6.686;2022-12-29T08:08:29;3.97;;;2.13;;
57593;SDS011;43423;46.510;6.686;2022-12-29T08:10:55;2.65;;;1.63;;
57593;SDS011;43423;46.510;6.686;2022-12-29T08:13:20;3.97;;;2.10;;
57593;SDS011;43423;46.510;6.686;2022-12-29T08:15:46;6.15;;;2.90;;
57593;SDS011;43423;46.510;6.686;2022-12-29T08:18:11;4.68;;;2.13;;
57593;SDS011;43423;46.510;6.686;2022-12-29T08:20:37;7.10;;;2.58;;
57593;SDS011;43423;46.510;6.686;2022-12-29T08:23:03;8.43;;;2.67;;
57593;SDS011;43423;46.510;6.686;2022-12-29T08:25:29;6.65;;;2.22;;
57593;SDS011;43423;46.510;6.686;2022-12-29T08:27:54;5.97;;;2.00;;
57593;SDS011;43423;46.510;6.686;2022-12-29T08:30:20;5.18;;;2.50;;
57593;SDS011;43423;46.510;6.686;2022-12-29T08:32:46;3.45;;;2.03;;
57593;SDS011;43423;46.510;6.686;2022-12-29T08:35:11;3.10;;;1.70;;
57593;SDS011;43423;46.510;6.686;2022-12-29T08:37:37;7.90;;;2.08;;
57593;SDS011;43423;46.510;6.686;2022-12-29T08:40:04;4.10;;;2.25;;
57593;SDS011;43423;46.510;6.686;2022-12-29T08:42:30;3.67;;;1.73;;
57593;SDS011;43423;46.510;6.686;2022-12-29T08:44:57;3.65;;;1.77;;
57593;SDS011;43423;46.510;6.686;2022-12-29T08:47:25;6.80;;;2.08;;
57593;SDS011;43423;46.510;6.686;2022-12-29T08:49:51;5.75;;;2.00;;
57593;SDS011;43423;46.510;6.686;2022-12-29T08:52:17;3.55;;;1.70;;
57593;SDS011;43423;46.510;6.686;2022-12-29T08:54:43;4.45;;;1.90;;
57593;SDS011;43423;46.510;6.686;2022-12-29T08:57:12;2.90;;;1.90;;
57593;SDS011;43423;46.510;6.686;2022-12-29T08:59:38;4.57;;;1.95;;
57593;SDS011;43423;46.510;6.686;2022-12-29T09:02:03;3.03;;;1.70;;
57593;SDS011;43423;46.510;6.686;2022-12-29T09:04:29;6.22;;;1.95;;
57593;SDS011;43423;46.510;6.686;2022-12-29T09:06:54;3.90;;;2.15;;
57593;SDS011;43423;46.510;6.686;2022-12-29T09:09:20;4.35;;;1.70;;
57593;SDS011;43423;46.510;6.686;2022-12-29T09:11:45;5.57;;;2.00;;
57593;SDS011;43423;46.510;6.686;2022-12-29T09:14:12;8.45;;;2.30;;
57593;SDS011;43423;46.510;6.686;2022-12-29T09:16:38;3.25;;;1.83;;
57593;SDS011;43423;46.510;6.686;2022-12-29T09:19:05;6.07;;;1.85;;
57593;SDS011;43423;46.510;6.686;2022-12-29T09:21:30;2.58;;;1.67;;
57593;SDS011;43423;46.510;6.686;2022-12-29T09:23:56;4.60;;;2.15;;
57593;SDS011;43423;46.510;6.686;2022-12-29T09:26:22;3.00;;;1.90;;
57593;SDS011;43423;46.510;6.686;2022-12-29T09:28:47;4.03;;;2.15;;
57593;SDS011;43423;46.510;6.686;2022-12-29T09:31:13;11.05;;;2.47;;
57593;SDS011;43423;46.510;6.686;2022-12-29T09:33:39;3.38;;;2.17;;
57593;SDS011;43423;46.510;6.686;2022-12-29T09:36:05;7.25;;;2.33;;
57593;SDS011;43423;46.510;6.686;2022-12-29T09:38:31;6.45;;;2.53;;
57593;SDS011;43423;46.510;6.686;2022-12-29T09:41:01;3.60;;;1.90;;
57593;SDS011;43423;46.510;6.686;2022-12-29T09:43:45;6.63;;;2.63;;
57593;SDS011;43423;46.510;6.686;2022-12-29T09:46:22;7.60;;;2.40;;
57593;SDS011;43423;46.510;6.686;2022-12-29T09:51:48;5.13;;;1.80;;
57593;SDS011;43423;46.510;6.686;2022-12-29T09:54:40;4.30;;;2.00;;
57593;SDS011;43423;46.510;6.686;2022-12-29T09:57:23;5.05;;;2.50;;
57593;SDS011;43423;46.510;6.686;2022-12-29T09:59:54;3.78;;;1.88;;
57593;SDS011;43423;46.510;6.686;2022-12-29T10:02:31;3.60;;;1.85;;
57593;SDS011;43423;46.510;6.686;2022-12-29T10:05:00;7.15;;;2.47;;
57593;SDS011;43423;46.510;6.686;2022-12-29T10:07:45;3.85;;;1.40;;
57593;SDS011;43423;46.510;6.686;2022-12-29T10:10:34;3.67;;;1.77;;
57593;SDS011;43423;46.510;6.686;2022-12-29T10:13:52;1.77;;;1.35;;
57593;SDS011;43423;46.510;6.686;2022-12-29T10:15:57;7.45;;;1.75;;
57593;SDS011;43423;46.510;6.686;2022-12-29T10:24:17;6.50;;;2.00;;
57593;SDS011;43423;46.510;6.686;2022-12-29T10:26:47;2.38;;;1.67;;
57593;SDS011;43423;46.510;6.686;2022-12-29T10:29:18;5.50;;;2.10;;
57593;SDS011;43423;46.510;6.686;2022-12-29T10:31:50;4.22;;;1.80;;
57593;SDS011;43423;46.510;6.686;2022-12-29T10:34:37;5.97;;;1.88;;
57593;SDS011;43423;46.510;6.686;2022-12-29T10:40:12;4.95;;;1.90;;
57593;SDS011;43423;46.510;6.686;2022-12-29T10:42:56;4.55;;;1.70;;
57593;SDS011;43423;46.510;6.686;2022-12-29T10:45:24;4.97;;;1.50;;
57593;SDS011;43423;46.510;6.686;2022-12-29T10:48:00;3.60;;;1.48;;
57593;SDS011;43423;46.510;6.686;2022-12-29T10:50:28;3.38;;;1.50;;
57593;SDS011;43423;46.510;6.686;2022-12-29T10:52:55;3.45;;;1.58;;
57593;SDS011;43423;46.510;6.686;2022-12-29T10:55:27;4.55;;;1.75;;
57593;SDS011;43423;46.510;6.686;2022-12-29T10:57:56;2.88;;;1.45;;
57593;SDS011;43423;46.510;6.686;2022-12-29T11:00:30;4.57;;;2.13;;
57593;SDS011;43423;46.510;6.686;2022-12-29T11:05:57;3.22;;;1.63;;
57593;SDS011;43423;46.510;6.686;2022-12-29T11:08:37;3.33;;;1.65;;
57593;SDS011;43423;46.510;6.686;2022-12-29T11:11:07;3.03;;;1.55;;
57593;SDS011;43423;46.510;6.686;2022-12-29T11:13:35;2.53;;;1.70;;
57593;SDS011;43423;46.510;6.686;2022-12-29T11:16:43;2.80;;;1.67;;
57593;SDS011;43423;46.510;6.686;2022-12-29T11:19:24;4.50;;;1.60;;
57593;SDS011;43423;46.510;6.686;2022-12-29T11:24:42;5.90;;;1.48;;
57593;SDS011;43423;46.510;6.686;2022-12-29T11:27:13;4.65;;;2.05;;
57593;SDS011;43423;46.510;6.686;2022-12-29T11:29:42;3.67;;;1.70;;
57593;SDS011;43423;46.510;6.686;2022-12-29T11:32:16;6.22;;;1.92;;
57593;SDS011;43423;46.510;6.686;2022-12-29T11:34:44;2.85;;;1.50;;
57593;SDS011;43423;46.510;6.686;2022-12-29T11:37:11;4.45;;;1.52;;
57593;SDS011;43423;46.510;6.686;2022-12-29T11:39:41;2.85;;;1.48;;
57593;SDS011;43423;46.510;6.686;2022-12-29T11:45:13;2.55;;;1.20;;
57593;SDS011;43423;46.510;6.686;2022-12-29T11:47:44;4.72;;;2.00;;
57593;SDS011;43423;46.510;6.686;2022-12-29T11:50:19;3.72;;;1.85;;
57593;SDS011;43423;46.510;6.686;2022-12-29T11:52:48;3.33;;;1.20;;
57593;SDS011;43423;46.510;6.686;2022-12-29T11:55:16;2.05;;;1.30;;
57593;SDS011;43423;46.510;6.686;2022-12-29T11:57:45;3.88;;;1.52;;
57593;SDS011;43423;46.510;6.686;2022-12-29T12:02:47;2.95;;;1.50;;
57593;SDS011;43423;46.510;6.686;2022-12-29T12:05:28;5.85;;;1.55;;
57593;SDS011;43423;46.510;6.686;2022-12-29T12:10:43;3.45;;;1.63;;
57593;SDS011;43423;46.510;6.686;2022-12-29T12:13:22;2.42;;;1.50;;
57593;SDS011;43423;46.510;6.686;2022-12-29T12:16:05;4.72;;;1.55;;
57593;SDS011;43423;46.510;6.686;2022-12-29T12:18:42;4.65;;;1.60;;
57593;SDS011;43423;46.510;6.686;2022-12-29T12:21:15;8.75;;;1.90;;
57593;SDS011;43423;46.510;6.686;2022-12-29T12:32:05;4.93;;;1.80;;
57593;SDS011;43423;46.510;6.686;2022-12-29T12:34:42;8.25;;;1.58;;
57593;SDS011;43423;46.510;6.686;2022-12-29T12:37:24;3.63;;;1.67;;
57593;SDS011;43423;46.510;6.686;2022-12-29T12:45:32;2.20;;;1.60;;
57593;SDS011;43423;46.510;6.686;2022-12-29T12:53:46;4.32;;;2.30;;
57593;SDS011;43423;46.510;6.686;2022-12-29T12:56:34;7.97;;;2.55;;
57593;SDS011;43423;46.510;6.686;2022-12-29T12:59:27;6.63;;;2.05;;
57593;SDS011;43423;46.510;6.686;2022-12-29T13:07:16;5.40;;;2.17;;
57593;SDS011;43423;46.510;6.686;2022-12-29T13:15:38;4.03;;;1.77;;
57593;SDS011;43423;46.510;6.686;2022-12-29T13:20:39;1.67;;;1.42;;
57593;SDS011;43423;46.510;6.686;2022-12-29T13:23:22;5.63;;;2.40;;
57593;SDS011;43423;46.510;6.686;2022-12-29T13:28:46;3.65;;;1.90;;
57593;SDS011;43423;46.510;6.686;2022-12-29T13:33:50;4.70;;;2.33;;
57593;SDS011;43423;46.510;6.686;2022-12-29T13:36:42;6.18;;;2.67;;
57593;SDS011;43423;46.510;6.686;2022-12-29T13:39:11;6.70;;;2.05;;
57593;SDS011;43423;46.510;6.686;2022-12-29T13:41:53;2.58;;;1.77;;
57593;SDS011;43423;46.510;6.686;2022-12-29T13:44:22;3.65;;;1.73;;
57593;SDS011;43423;46.510;6.686;2022-12-29T13:46:52;4.05;;;1.92;;
57593;SDS011;43423;46.510;6.686;2022-12-29T13:49:22;6.63;;;2.95;;
57593;SDS011;43423;46.510;6.686;2022-12-29T13:57:06;2.60;;;1.88;;
57593;SDS011;43423;46.510;6.686;2022-12-29T14:07:49;4.10;;;2.47;;
57593;SDS011;43423;46.510;6.686;2022-12-29T14:10:35;6.63;;;3.00;;
57593;SDS011;43423;46.510;6.686;2022-12-29T14:15:43;12.48;;;3.90;;
57593;SDS011;43423;46.510;6.686;2022-12-29T14:20:39;8.85;;;3.95;;
57593;SDS011;43423;46.510;6.686;2022-12-29T14:23:16;10.48;;;3.53;;
57593;SDS011;43423;46.510;6.686;2022-12-29T14:25:56;8.15;;;3.05;;
57593;SDS011;43423;46.510;6.686;2022-12-29T14:28:26;8.23;;;3.85;;
57593;SDS011;43423;46.510;6.686;2022-12-29T14:31:00;5.35;;;3.28;;
57593;SDS011;43423;46.510;6.686;2022-12-29T14:33:29;7.97;;;3.03;;
57593;SDS011;43423;46.510;6.686;2022-12-29T14:35:56;11.18;;;4.50;;
57593;SDS011;43423;46.510;6.686;2022-12-29T14:38:46;33.53;;;12.43;;
57593;SDS011;43423;46.510;6.686;2022-12-29T14:41:16;50.35;;;15.98;;
57593;SDS011;43423;46.510;6.686;2022-12-29T14:43:51;15.40;;;5.07;;
57593;SDS011;43423;46.510;6.686;2022-12-29T14:46:42;11.02;;;5.32;;
57593;SDS011;43423;46.510;6.686;2022-12-29T14:49:14;16.65;;;5.72;;
57593;SDS011;43423;46.510;6.686;2022-12-29T14:51:43;31.90;;;11.20;;
57593;SDS011;43423;46.510;6.686;2022-12-29T14:57:07;23.92;;;9.18;;
57593;SDS011;43423;46.510;6.686;2022-12-29T14:59:39;16.45;;;6.53;;
57593;SDS011;43423;46.510;6.686;2022-12-29T15:02:11;16.20;;;6.55;;
57593;SDS011;43423;46.510;6.686;2022-12-29T15:04:41;14.77;;;5.10;;
57593;SDS011;43423;46.510;6.686;2022-12-29T15:07:09;11.20;;;5.03;;
57593;SDS011;43423;46.510;6.686;2022-12-29T15:09:46;10.57;;;6.13;;
57593;SDS011;43423;46.510;6.686;2022-12-29T15:12:23;12.73;;;5.38;;
57593;SDS011;43423;46.510;6.686;2022-12-29T15:15:23;11.30;;;4.70;;
57593;SDS011;43423;46.510;6.686;2022-12-29T15:17:53;11.02;;;5.50;;
57593;SDS011;43423;46.510;6.686;2022-12-29T15:20:26;14.15;;;5.78;;
57593;SDS011;43423;46.510;6.686;2022-12-29T15:25:35;11.98;;;5.15;;
57593;SDS011;43423;46.510;6.686;2022-12-29T15:28:02;15.05;;;5.05;;
57593;SDS011;43423;46.510;6.686;2022-12-29T15:30:30;11.98;;;5.90;;
57593;SDS011;43423;46.510;6.686;2022-12-29T15:32:56;15.23;;;6.68;;
57593;SDS011;43423;46.510;6.686;2022-12-29T15:35:27;27.55;;;7.85;;
57593;SDS011;43423;46.510;6.686;2022-12-29T15:37:58;18.00;;;6.22;;
57593;SDS011;43423;46.510;6.686;2022-12-29T15:40:31;10.50;;;4.88;;
57593;SDS011;43423;46.510;6.686;2022-12-29T15:45:35;21.65;;;3.38;;
57593;SDS011;43423;46.510;6.686;2022-12-29T15:48:01;10.73;;;3.15;;
57593;SDS011;43423;46.510;6.686;2022-12-29T15:50:32;8.93;;;2.58;;
57593;SDS011;43423;46.510;6.686;2022-12-29T15:53:00;7.88;;;4.53;;
57593;SDS011;43423;46.510;6.686;2022-12-29T15:55:32;6.20;;;3.13;;
57593;SDS011;43423;46.510;6.686;2022-12-29T15:58:01;11.48;;;4.13;;
57593;SDS011;43423;46.510;6.686;2022-12-29T16:00:32;10.95;;;4.68;;
57593;SDS011;43423;46.510;6.686;2022-12-29T16:03:02;16.63;;;6.05;;
57593;SDS011;43423;46.510;6.686;2022-12-29T16:05:33;12.27;;;4.53;;
57593;SDS011;43423;46.510;6.686;2022-12-29T16:08:01;9.93;;;4.30;;
57593;SDS011;43423;46.510;6.686;2022-12-29T16:10:37;8.80;;;4.28;;
57593;SDS011;43423;46.510;6.686;2022-12-29T16:13:27;9.02;;;4.78;;
57593;SDS011;43423;46.510;6.686;2022-12-29T16:16:07;9.93;;;4.20;;
57593;SDS011;43423;46.510;6.686;2022-12-29T16:18:37;7.45;;;3.75;;
57593;SDS011;43423;46.510;6.686;2022-12-29T16:21:04;10.88;;;4.00;;
57593;SDS011;43423;46.510;6.686;2022-12-29T16:23:37;9.73;;;4.22;;
57593;SDS011;43423;46.510;6.686;2022-12-29T16:26:03;13.98;;;5.22;;
57593;SDS011;43423;46.510;6.686;2022-12-29T16:31:04;15.13;;;5.70;;
57593;SDS011;43423;46.510;6.686;2022-12-29T16:36:24;13.75;;;5.75;;
57593;SDS011;43423;46.510;6.686;2022-12-29T16:41:47;14.05;;;6.25;;
57593;SDS011;43423;46.510;6.686;2022-12-29T16:46:55;13.25;;;6.28;;
57593;SDS011;43423;46.510;6.686;2022-12-29T16:49:25;14.52;;;7.25;;
57593;SDS011;43423;46.510;6.686;2022-12-29T16:51:52;7.82;;;4.22;;
57593;SDS011;43423;46.510;6.686;2022-12-29T16:54:37;12.30;;;4.35;;
57593;SDS011;43423;46.510;6.686;2022-12-29T16:57:05;8.93;;;3.80;;
57593;SDS011;43423;46.510;6.686;2022-12-29T16:59:36;19.15;;;7.18;;
57593;SDS011;43423;46.510;6.686;2022-12-29T17:02:06;19.23;;;7.85;;
57593;SDS011;43423;46.510;6.686;2022-12-29T17:04:36;18.20;;;7.68;;
57593;SDS011;43423;46.510;6.686;2022-12-29T17:07:02;14.85;;;7.45;;
57593;SDS011;43423;46.510;6.686;2022-12-29T17:09:28;14.57;;;8.18;;
57593;SDS011;43423;46.510;6.686;2022-12-29T17:11:55;11.25;;;6.15;;
57593;SDS011;43423;46.510;6.686;2022-12-29T17:14:40;17.17;;;6.53;;
57593;SDS011;43423;46.510;6.686;2022-12-29T17:19:54;11.57;;;6.00;;
57593;SDS011;43423;46.510;6.686;2022-12-29T17:22:25;19.40;;;6.33;;